Main page
METAR-TAF:

METAR-TAF

Airports :

Knox County Regional Airport

Rockland, Maine, United States

latitude: 44-04N, longitude: 069-06W, elevation: 56 ft

Current weather observation

The report was made 51 minutes ago, at 03:56 UTC
Wind 6 mph from the Northwest
Temperature 10°F
Humidity 47%
Pressure 30.43 in. Hg
Visibility: 10 miles
Clear sky

METAR: KRKD 210356Z AUTO 31005KT 10SM CLR M12/M21 A3043 RMK AO2 SLP304 T11171206 FZRANO

Time: 23:47 (04:47 UTC)

Forecast

The report was made 5 hours and 27 minutes ago, at 23:20 UTC
Forecast valid from 21 at 00 UTC to 21 at 24 UTC
Wind 6 mph from the West/Northwest
Visibility: 6 miles
Clear sky

TAF: KRKD 202320Z 2100/2124 30005KT P6SM SKC AMD LTD TO CLD VIS AND WIND

Weather observations and forecasts of more than 4000 airports (METAR and TAF reports).

The available stations are represented by yellow and red dots on the map.

Hover mouse over dot to see the name of the station.

Then click to see weather observations and forecasts.

To change the map : click on the green buttons with a black cross to zoom in, on the green button with a dash to zoom out, or on the green arrows for adjacent maps.


METAR-TAF: